createdAt,value
2023-02-12T00:01:43.720Z,1.23
2023-02-12T00:04:13.124Z,1.70
2023-02-12T00:06:42.926Z,1.23
2023-02-12T00:09:12.310Z,1.70
2023-02-12T00:11:42.024Z,1.70
2023-02-12T00:14:11.316Z,1.50
2023-02-12T00:16:40.967Z,1.40
2023-02-12T00:19:11.757Z,2.13
2023-02-12T00:21:41.436Z,3.70
2023-02-12T00:24:10.762Z,4.18
2023-02-12T00:26:41.044Z,3.03
2023-02-12T00:29:11.489Z,1.30
2023-02-12T00:31:41.372Z,1.90
2023-02-12T00:34:15.949Z,1.48
2023-02-12T00:36:45.960Z,1.67
2023-02-12T00:39:15.334Z,1.80
2023-02-12T00:41:45.364Z,1.67
2023-02-12T00:44:15.088Z,1.80
2023-02-12T00:46:44.983Z,2.50
2023-02-12T00:49:16.289Z,1.55
2023-02-12T00:51:46.425Z,2.03
2023-02-12T00:54:16.131Z,2.35
2023-02-12T00:56:46.003Z,3.88
2023-02-12T00:59:15.281Z,2.65
2023-02-12T01:01:45.124Z,1.23
2023-02-12T01:04:15.863Z,1.55
2023-02-12T01:09:14.921Z,1.55
2023-02-12T01:11:44.556Z,1.48
2023-02-12T01:14:13.956Z,1.65
2023-02-12T01:16:44.148Z,1.05
2023-02-12T01:19:15.316Z,1.10
2023-02-12T01:21:45.528Z,1.35
2023-02-12T01:24:14.792Z,1.27
2023-02-12T01:26:44.788Z,1.08
2023-02-12T01:29:14.060Z,1.38
2023-02-12T01:31:43.970Z,0.98
2023-02-12T01:34:15.037Z,1.88
2023-02-12T01:36:44.664Z,1.98
2023-02-12T01:39:14.802Z,2.53
2023-02-12T01:41:47.018Z,2.30
2023-02-12T01:44:19.580Z,1.90
2023-02-12T01:46:50.970Z,2.00
2023-02-12T01:49:26.395Z,2.42
2023-02-12T01:52:01.321Z,1.80
2023-02-12T01:54:31.937Z,2.03
2023-02-12T01:57:03.437Z,1.67
2023-02-12T01:59:33.428Z,1.80
2023-02-12T02:02:03.213Z,1.95
2023-02-12T02:04:41.965Z,1.70
2023-02-12T02:07:12.547Z,2.15
2023-02-12T02:09:43.377Z,2.77
2023-02-12T02:12:30.575Z,2.50
2023-02-12T02:15:04.114Z,2.50
2023-02-12T02:20:57.853Z,1.70
2023-02-12T02:23:49.132Z,1.55
2023-02-12T02:26:45.747Z,1.75
2023-02-12T02:29:36.719Z,1.83
2023-02-12T02:32:12.068Z,2.20
2023-02-12T02:34:47.523Z,1.65
2023-02-12T02:37:21.180Z,1.90
2023-02-12T02:39:54.618Z,1.40
2023-02-12T02:42:31.723Z,2.30
2023-02-12T02:45:07.904Z,1.98
2023-02-12T02:47:42.884Z,1.50
2023-02-12T02:50:16.123Z,1.33
2023-02-12T02:52:49.790Z,1.85
2023-02-12T02:55:21.961Z,2.63
2023-02-12T02:57:56.438Z,1.67
2023-02-12T03:00:33.309Z,1.55
2023-02-12T03:03:09.795Z,2.45
2023-02-12T03:05:43.662Z,1.98
2023-02-12T03:08:17.024Z,2.17
2023-02-12T03:10:50.903Z,2.03
2023-02-12T03:13:26.841Z,2.35
2023-02-12T03:16:00.846Z,2.13
2023-02-12T03:18:37.655Z,2.30
2023-02-12T03:21:13.028Z,3.00
2023-02-12T03:23:48.895Z,2.58
2023-02-12T03:26:23.825Z,2.22
2023-02-12T03:28:53.324Z,2.35
2023-02-12T03:31:35.518Z,2.92
2023-02-12T03:34:15.175Z,2.97
2023-02-12T03:36:56.509Z,2.13
2023-02-12T03:39:32.981Z,3.15
2023-02-12T03:42:08.414Z,2.70
2023-02-12T03:44:49.701Z,2.95
2023-02-12T03:47:26.762Z,3.72
2023-02-12T03:50:04.434Z,2.65
2023-02-12T03:52:34.992Z,3.05
2023-02-12T03:55:05.287Z,3.13
2023-02-12T03:57:40.064Z,2.65
2023-02-12T04:00:12.980Z,3.22
2023-02-12T04:02:43.272Z,2.97
2023-02-12T04:05:21.508Z,3.22
2023-02-12T04:07:52.198Z,2.90
2023-02-12T04:10:27.556Z,3.17
2023-02-12T04:13:04.835Z,3.78
2023-02-12T04:15:53.382Z,3.63
2023-02-12T04:18:30.890Z,4.32
2023-02-12T04:21:08.726Z,6.63
2023-02-12T04:23:49.668Z,3.38
2023-02-12T04:26:29.727Z,3.45
2023-02-12T04:29:16.478Z,3.70
2023-02-12T04:31:51.466Z,3.70
2023-02-12T04:34:28.314Z,4.90
2023-02-12T04:37:01.963Z,4.90
2023-02-12T04:39:36.065Z,5.38
2023-02-12T04:42:06.367Z,4.30
2023-02-12T04:44:39.604Z,6.00
2023-02-12T04:47:09.623Z,4.72
2023-02-12T04:49:39.243Z,4.07
2023-02-12T04:52:11.434Z,5.57
2023-02-12T04:54:41.262Z,5.18
2023-02-12T04:57:11.348Z,4.22
2023-02-12T04:59:41.670Z,4.43
2023-02-12T05:02:11.590Z,5.00
2023-02-12T05:04:41.417Z,5.18
2023-02-12T05:07:13.094Z,4.97
2023-02-12T05:09:44.049Z,5.32
2023-02-12T05:12:13.336Z,3.85
2023-02-12T05:14:43.093Z,5.47
2023-02-12T05:17:12.357Z,3.60
2023-02-12T05:19:42.552Z,5.63
2023-02-12T05:22:13.307Z,4.10
2023-02-12T05:24:43.777Z,4.60
2023-02-12T05:27:13.067Z,6.60
2023-02-12T05:29:43.003Z,3.67
2023-02-12T05:32:12.482Z,3.97
2023-02-12T05:34:42.346Z,3.63
2023-02-12T05:37:14.358Z,3.63
2023-02-12T05:39:44.009Z,3.78
2023-02-12T05:42:13.272Z,3.50
2023-02-12T05:44:43.179Z,4.05
2023-02-12T05:47:12.830Z,4.05
2023-02-12T05:49:43.154Z,4.55
2023-02-12T05:52:13.894Z,3.85
2023-02-12T05:57:12.923Z,3.47
2023-02-12T05:59:42.863Z,4.50
2023-02-12T06:02:12.205Z,3.50
2023-02-12T06:04:42.362Z,3.80
2023-02-12T06:07:13.124Z,3.78
2023-02-12T06:09:43.231Z,3.50
2023-02-12T06:12:12.612Z,3.30
2023-02-12T06:14:43.300Z,4.07
2023-02-12T06:17:12.843Z,3.17
2023-02-12T06:19:42.467Z,3.22
2023-02-12T06:22:13.383Z,3.70
2023-02-12T06:24:43.002Z,3.97
2023-02-12T06:27:12.390Z,3.47
2023-02-12T06:29:43.394Z,3.87
2023-02-12T06:32:13.873Z,3.33
2023-02-12T06:37:14.502Z,2.90
2023-02-12T06:39:44.292Z,3.67
2023-02-12T06:42:13.596Z,3.17
2023-02-12T06:44:43.257Z,2.63
2023-02-12T06:47:13.064Z,2.63
2023-02-12T06:49:42.793Z,5.40
2023-02-12T06:52:14.447Z,3.92
2023-02-12T06:54:44.238Z,3.05
2023-02-12T06:57:13.687Z,3.72
2023-02-12T06:59:43.786Z,3.10
2023-02-12T07:02:14.211Z,4.00
2023-02-12T07:04:43.827Z,3.70
2023-02-12T07:07:14.644Z,3.55
2023-02-12T07:09:44.621Z,3.13
2023-02-12T07:12:14.023Z,3.75
2023-02-12T07:14:43.799Z,3.53
2023-02-12T07:17:13.125Z,4.78
2023-02-12T07:19:43.045Z,3.63
2023-02-12T07:22:13.876Z,3.47
2023-02-12T07:24:43.847Z,3.58
2023-02-12T07:27:13.318Z,4.30
2023-02-12T07:29:43.231Z,4.07
2023-02-12T07:32:12.560Z,6.07
2023-02-12T07:34:42.263Z,4.28
2023-02-12T07:37:11.752Z,4.70
2023-02-12T07:39:43.101Z,4.28
2023-02-12T07:42:15.347Z,3.75
2023-02-12T07:44:45.028Z,3.60
2023-02-12T07:47:14.398Z,5.55
2023-02-12T07:49:44.118Z,2.47
2023-02-12T07:52:14.004Z,2.00
2023-02-12T07:54:45.554Z,1.70
2023-02-12T07:57:14.876Z,1.80
2023-02-12T07:59:44.568Z,2.85
2023-02-12T08:02:14.169Z,1.92
2023-02-12T08:04:44.093Z,2.22
2023-02-12T08:07:13.592Z,2.88
2023-02-12T08:09:44.995Z,3.38
2023-02-12T08:14:44.027Z,2.10
2023-02-12T08:17:13.693Z,1.83
2023-02-12T08:19:43.494Z,2.17
2023-02-12T08:22:13.022Z,2.00
2023-02-12T08:24:44.433Z,1.85
2023-02-12T08:29:43.263Z,1.90
2023-02-12T08:32:14.684Z,2.15
2023-02-12T08:34:44.775Z,2.03
2023-02-12T08:37:14.061Z,2.20
2023-02-12T08:39:45.515Z,1.90
2023-02-12T08:42:14.896Z,1.58
2023-02-12T08:44:44.724Z,2.15
2023-02-12T08:47:14.019Z,2.30
2023-02-12T08:49:43.839Z,3.33
2023-02-12T08:52:13.264Z,1.85
2023-02-12T08:54:44.460Z,3.45
2023-02-12T08:57:13.803Z,2.00
2023-02-12T08:59:43.390Z,3.33
2023-02-12T09:02:13.154Z,3.00
2023-02-12T09:04:42.947Z,3.30
2023-02-12T09:07:12.349Z,2.97
2023-02-12T09:09:43.564Z,2.25
2023-02-12T09:12:12.867Z,2.20
2023-02-12T09:14:42.995Z,2.70
2023-02-12T09:17:12.453Z,2.65
2023-02-12T09:19:42.398Z,2.80
2023-02-12T09:22:11.690Z,2.75
2023-02-12T09:24:41.492Z,3.33
2023-02-12T09:27:12.222Z,2.72
2023-02-12T09:29:42.187Z,2.33
2023-02-12T09:32:11.662Z,2.70
2023-02-12T09:34:41.869Z,3.00
2023-02-12T09:37:11.152Z,5.15
2023-02-12T09:39:41.353Z,3.38
2023-02-12T09:42:42.770Z,3.60
2023-02-12T09:45:17.863Z,3.20
2023-02-12T09:47:53.010Z,3.55
2023-02-12T09:50:47.616Z,2.70
2023-02-12T09:53:19.292Z,3.10
2023-02-12T09:55:49.671Z,3.72
2023-02-12T09:58:35.719Z,3.22
2023-02-12T10:01:13.837Z,4.70
2023-02-12T10:03:45.246Z,3.47
2023-02-12T10:06:18.763Z,4.82
2023-02-12T10:09:04.809Z,4.10
2023-02-12T10:11:56.784Z,3.75
2023-02-12T10:14:54.275Z,3.45
2023-02-12T10:17:34.936Z,3.70
2023-02-12T10:20:41.898Z,3.95
2023-02-12T10:23:33.267Z,3.88
2023-02-12T10:26:11.921Z,2.70
2023-02-12T10:28:43.691Z,3.97
2023-02-12T10:31:21.275Z,4.38
2023-02-12T10:33:54.534Z,3.55
2023-02-12T10:36:38.790Z,3.03
2023-02-12T10:39:19.547Z,3.17
2023-02-12T10:42:02.908Z,2.70
2023-02-12T10:44:33.678Z,2.97
2023-02-12T10:47:04.438Z,3.47
2023-02-12T10:49:35.160Z,3.88
2023-02-12T10:52:17.007Z,3.65
2023-02-12T10:54:47.644Z,3.10
2023-02-12T10:57:22.231Z,3.05
2023-02-12T10:59:54.749Z,2.65
2023-02-12T11:02:30.640Z,3.72
2023-02-12T11:05:01.815Z,3.17
2023-02-12T11:07:31.195Z,3.42
2023-02-12T11:10:00.998Z,4.03
2023-02-12T11:12:36.044Z,3.28
2023-02-12T11:15:15.226Z,2.90
2023-02-12T11:17:48.132Z,3.40
2023-02-12T11:20:28.308Z,3.33
2023-02-12T11:23:00.121Z,3.60
2023-02-12T11:25:32.519Z,4.07
2023-02-12T11:28:06.233Z,4.80
2023-02-12T11:30:36.936Z,3.42
2023-02-12T11:33:19.614Z,3.80
2023-02-12T11:35:55.820Z,3.67
2023-02-12T11:38:32.774Z,4.40
2023-02-12T11:41:19.788Z,3.58
2023-02-12T11:43:50.865Z,4.47
2023-02-12T11:46:23.842Z,3.17
2023-02-12T11:48:57.329Z,4.28
2023-02-12T11:51:33.003Z,4.95
2023-02-12T11:54:06.620Z,5.05
2023-02-12T11:56:44.364Z,5.53
2023-02-12T11:59:26.062Z,5.10
2023-02-12T12:01:58.557Z,6.15
2023-02-12T12:04:32.993Z,7.13
2023-02-12T12:07:08.949Z,6.68
2023-02-12T12:09:46.185Z,7.35
2023-02-12T12:12:20.995Z,6.53
2023-02-12T12:15:11.197Z,6.35
2023-02-12T12:18:06.925Z,5.25
2023-02-12T12:20:43.780Z,5.45
2023-02-12T12:23:18.195Z,4.28
2023-02-12T12:25:52.564Z,4.43
2023-02-12T12:28:36.796Z,5.32
2023-02-12T12:31:11.385Z,5.50
2023-02-12T12:33:45.843Z,5.30
2023-02-12T12:36:44.616Z,5.00
2023-02-12T12:39:21.699Z,5.28
2023-02-12T12:42:28.247Z,5.43
2023-02-12T12:45:15.986Z,5.00
2023-02-12T12:47:58.885Z,5.22
2023-02-12T12:50:50.215Z,5.60
2023-02-12T12:53:31.916Z,5.15
2023-02-12T12:56:19.509Z,4.03
2023-02-12T12:59:02.552Z,5.10
2023-02-12T13:01:57.214Z,4.90
2023-02-12T13:04:52.220Z,4.53
2023-02-12T13:07:43.692Z,5.70
2023-02-12T13:10:26.879Z,5.43
2023-02-12T13:13:22.295Z,4.57
2023-02-12T13:15:58.381Z,4.18
2023-02-12T13:18:37.759Z,4.25
2023-02-12T13:21:17.693Z,4.47
2023-02-12T13:23:54.218Z,3.43
2023-02-12T13:26:31.288Z,4.07
2023-02-12T13:29:08.781Z,3.63
2023-02-12T13:31:48.991Z,4.28
2023-02-12T13:34:20.286Z,3.60
2023-02-12T13:36:50.842Z,3.45
2023-02-12T13:42:16.877Z,4.18
2023-02-12T13:44:53.984Z,4.32
2023-02-12T13:47:37.156Z,3.70
2023-02-12T13:50:19.552Z,3.33
2023-02-12T13:52:57.784Z,4.05
2023-02-12T13:55:33.545Z,4.03
2023-02-12T13:58:45.359Z,4.28
2023-02-12T14:01:47.908Z,4.13
2023-02-12T14:04:34.039Z,4.28
2023-02-12T14:07:07.014Z,4.32
2023-02-12T14:09:40.828Z,4.43
2023-02-12T14:12:14.851Z,4.95
2023-02-12T14:14:47.523Z,4.63
2023-02-12T14:17:45.150Z,4.35
2023-02-12T14:20:27.942Z,3.63
2023-02-12T14:23:26.171Z,5.18
2023-02-12T14:26:04.467Z,4.95
2023-02-12T14:28:45.591Z,5.20
2023-02-12T14:31:35.732Z,5.43
2023-02-12T14:34:52.148Z,4.97
2023-02-12T14:37:38.624Z,4.45
2023-02-12T14:40:40.918Z,5.60
2023-02-12T14:43:30.926Z,4.45
2023-02-12T14:46:21.938Z,4.45
2023-02-12T14:48:54.997Z,4.20
2023-02-12T14:51:40.411Z,4.80
2023-02-12T14:54:18.652Z,4.20
2023-02-12T14:56:50.231Z,4.20
2023-02-12T14:59:24.074Z,3.70
2023-02-12T15:01:55.059Z,4.75
2023-02-12T15:04:30.834Z,4.30
2023-02-12T15:07:08.566Z,4.32
2023-02-12T15:09:46.590Z,4.88
2023-02-12T15:12:22.357Z,4.53
2023-02-12T15:14:57.619Z,4.55
2023-02-12T15:17:34.140Z,4.53
2023-02-12T15:20:08.434Z,5.03
2023-02-12T15:22:42.454Z,6.03
2023-02-12T15:25:26.059Z,5.05
2023-02-12T15:27:59.657Z,5.85
2023-02-12T15:30:31.966Z,6.18
2023-02-12T15:33:04.845Z,5.15
2023-02-12T15:35:37.289Z,4.65
2023-02-12T15:38:09.831Z,5.30
2023-02-12T15:40:56.351Z,4.90
2023-02-12T15:43:30.493Z,4.90
2023-02-12T15:46:00.565Z,4.47
2023-02-12T15:48:33.136Z,4.70
2023-02-12T15:51:10.424Z,5.10
2023-02-12T15:53:41.719Z,3.60
2023-02-12T15:56:16.130Z,4.82
2023-02-12T15:58:52.646Z,5.00
2023-02-12T16:01:24.107Z,4.47
2023-02-12T16:03:55.119Z,5.50
2023-02-12T16:06:26.414Z,4.30
2023-02-12T16:09:03.685Z,3.75
2023-02-12T16:11:35.811Z,3.97
2023-02-12T16:14:07.439Z,3.58
2023-02-12T16:19:22.592Z,3.45
2023-02-12T16:21:56.362Z,3.63
2023-02-12T16:24:32.646Z,3.67
2023-02-12T16:27:09.528Z,4.53
2023-02-12T16:29:46.156Z,4.20
2023-02-12T16:32:34.623Z,3.63
2023-02-12T16:35:23.712Z,4.45
2023-02-12T16:38:00.986Z,4.22
2023-02-12T16:40:34.986Z,3.17
2023-02-12T16:43:24.238Z,3.72
2023-02-12T16:46:03.875Z,4.10
2023-02-12T16:48:38.765Z,3.97
2023-02-12T16:51:08.713Z,3.85
2023-02-12T16:53:47.383Z,4.07
2023-02-12T16:56:21.293Z,4.55
2023-02-12T16:58:55.474Z,5.25
2023-02-12T17:01:28.325Z,4.65
2023-02-12T17:03:58.760Z,4.72
2023-02-12T17:06:30.307Z,4.82
2023-02-12T17:09:00.743Z,4.25
2023-02-12T17:11:30.968Z,4.90
2023-02-12T17:14:02.941Z,6.05
2023-02-12T17:16:33.200Z,4.93
2023-02-12T17:19:02.788Z,6.30
2023-02-12T17:21:38.639Z,6.95
2023-02-12T17:24:11.261Z,5.53
2023-02-12T17:26:41.237Z,6.47
2023-02-12T17:29:12.045Z,6.32
2023-02-12T17:31:42.136Z,6.20
2023-02-12T17:34:11.667Z,6.07
2023-02-12T17:36:41.755Z,6.85
2023-02-12T17:39:13.794Z,6.13
2023-02-12T17:41:44.477Z,6.00
2023-02-12T17:44:15.851Z,7.50
2023-02-12T17:46:45.808Z,5.90
2023-02-12T17:49:15.167Z,8.20
2023-02-12T17:51:46.203Z,7.55
2023-02-12T17:54:17.917Z,7.57
2023-02-12T17:56:47.839Z,7.25
2023-02-12T17:59:19.150Z,7.20
2023-02-12T18:01:48.954Z,7.20
2023-02-12T18:04:18.413Z,6.80
2023-02-12T18:06:48.307Z,7.65
2023-02-12T18:09:18.459Z,9.35
2023-02-12T18:11:49.719Z,8.15
2023-02-12T18:19:20.123Z,6.88
2023-02-12T18:21:50.143Z,7.13
2023-02-12T18:24:19.791Z,7.22
2023-02-12T18:26:49.719Z,7.30
2023-02-12T18:29:20.594Z,6.97
2023-02-12T18:31:51.583Z,7.72
2023-02-12T18:34:21.934Z,8.48
2023-02-12T18:39:20.989Z,9.13
2023-02-12T18:41:51.086Z,7.30
2023-02-12T18:44:23.072Z,7.80
2023-02-12T18:46:53.255Z,7.55
2023-02-12T18:49:22.789Z,7.18
2023-02-12T18:51:52.652Z,7.22
2023-02-12T18:54:23.171Z,7.38
2023-02-12T18:59:27.314Z,6.82
2023-02-12T19:01:57.820Z,6.68
2023-02-12T19:04:28.469Z,9.10
2023-02-12T19:06:58.578Z,7.47
2023-02-12T19:09:28.903Z,6.10
2023-02-12T19:12:02.037Z,6.05
2023-02-12T19:14:33.115Z,7.00
2023-02-12T19:17:03.162Z,7.03
2023-02-12T19:19:32.688Z,6.65
2023-02-12T19:22:03.013Z,6.80
2023-02-12T19:24:45.913Z,7.03
2023-02-12T19:27:18.239Z,6.97
2023-02-12T19:29:49.853Z,6.03
2023-02-12T19:32:19.905Z,6.07
2023-02-12T19:34:49.406Z,6.30
2023-02-12T19:37:20.505Z,5.50
2023-02-12T19:39:50.049Z,5.68
2023-02-12T19:42:20.802Z,5.53
2023-02-12T19:44:51.663Z,6.00
2023-02-12T19:47:21.651Z,5.13
2023-02-12T19:49:51.220Z,5.45
2023-02-12T19:52:21.266Z,6.07
2023-02-12T19:54:50.772Z,5.20
2023-02-12T19:57:20.932Z,5.10
2023-02-12T19:59:53.044Z,6.20
2023-02-12T20:02:23.066Z,4.55
2023-02-12T20:04:52.622Z,5.00
2023-02-12T20:07:22.532Z,5.32
2023-02-12T20:09:52.870Z,5.30
2023-02-12T20:12:23.207Z,4.68
2023-02-12T20:14:56.479Z,4.90
2023-02-12T20:17:26.152Z,4.72
2023-02-12T20:19:55.556Z,4.43
2023-02-12T20:22:26.318Z,5.30
2023-02-12T20:24:56.379Z,5.25
2023-02-12T20:29:58.331Z,6.60
2023-02-12T20:32:28.278Z,4.50
2023-02-12T20:34:57.830Z,4.05
2023-02-12T20:37:27.688Z,4.10
2023-02-12T20:39:57.673Z,4.35
2023-02-12T20:42:27.401Z,4.13
2023-02-12T20:44:58.572Z,4.00
2023-02-12T20:47:30.588Z,4.53
2023-02-12T20:50:00.378Z,3.85
2023-02-12T20:52:30.903Z,4.18
2023-02-12T20:55:00.760Z,3.92
2023-02-12T20:57:32.167Z,3.30
2023-02-12T21:00:03.790Z,4.93
2023-02-12T21:02:34.343Z,3.55
2023-02-12T21:05:03.767Z,5.45
2023-02-12T21:07:35.810Z,3.58
2023-02-12T21:10:06.151Z,3.47
2023-02-12T21:12:36.256Z,2.97
2023-02-12T21:15:07.535Z,3.20
2023-02-12T21:17:37.531Z,3.20
2023-02-12T21:20:08.702Z,3.70
2023-02-12T21:22:38.504Z,3.88
2023-02-12T21:25:08.712Z,4.72
2023-02-12T21:27:40.939Z,3.22
2023-02-12T21:30:12.204Z,3.65
2023-02-12T21:32:44.696Z,3.47
2023-02-12T21:35:15.711Z,3.85
2023-02-12T21:37:46.148Z,3.63
2023-02-12T21:40:15.612Z,3.45
2023-02-12T21:42:45.225Z,2.92
2023-02-12T21:45:16.908Z,3.53
2023-02-12T21:47:46.712Z,2.95
2023-02-12T21:50:16.054Z,3.95
2023-02-12T21:52:46.225Z,3.13
2023-02-12T21:55:15.702Z,3.08
2023-02-12T21:57:47.685Z,3.47
2023-02-12T22:00:19.616Z,3.33
2023-02-12T22:02:49.625Z,3.28
2023-02-12T22:05:19.498Z,3.55
2023-02-12T22:07:51.074Z,3.92
2023-02-12T22:10:20.965Z,2.78
2023-02-12T22:12:50.739Z,3.08
2023-02-12T22:15:22.176Z,3.28
2023-02-12T22:17:51.823Z,2.78
2023-02-12T22:20:21.659Z,3.53
2023-02-12T22:22:51.462Z,3.50
2023-02-12T22:25:20.976Z,2.63
2023-02-12T22:27:51.395Z,2.83
2023-02-12T22:30:22.599Z,2.55
2023-02-12T22:32:52.592Z,2.15
2023-02-12T22:35:21.960Z,2.67
2023-02-12T22:37:51.670Z,2.58
2023-02-12T22:40:21.138Z,2.35
2023-02-12T22:42:50.882Z,2.08
2023-02-12T22:45:22.146Z,2.63
2023-02-12T22:47:51.900Z,2.50
2023-02-12T22:50:21.345Z,2.13
2023-02-12T22:52:51.003Z,2.10
2023-02-12T22:55:20.479Z,1.92
2023-02-12T22:57:50.081Z,2.20
2023-02-12T23:00:22.334Z,1.67
2023-02-12T23:02:52.662Z,2.85
2023-02-12T23:05:21.993Z,2.47
2023-02-12T23:07:51.639Z,2.20
2023-02-12T23:10:21.690Z,1.50
2023-02-12T23:12:51.331Z,1.58
2023-02-12T23:15:22.034Z,1.48
2023-02-12T23:17:53.146Z,1.80
2023-02-12T23:20:22.659Z,2.35
2023-02-12T23:22:52.562Z,2.13
2023-02-12T23:25:21.926Z,1.88
2023-02-12T23:27:51.666Z,1.60
2023-02-12T23:30:23.042Z,1.40
2023-02-12T23:32:52.808Z,1.42
2023-02-12T23:35:22.186Z,1.50
2023-02-12T23:37:51.982Z,1.35
2023-02-12T23:40:21.592Z,1.73
2023-02-12T23:42:51.696Z,1.95
2023-02-12T23:45:22.508Z,2.05
2023-02-12T23:47:52.256Z,1.63
2023-02-12T23:50:21.955Z,1.40
2023-02-12T23:52:51.664Z,1.27
2023-02-12T23:55:20.962Z,1.40
2023-02-12T23:57:51.290Z,1.65
